Time;durP1;ratioP1;P1;durP2;ratioP2;P2;SDS_P1;SDS_P2;PMS_P1;PMS_P2;Temp;Humidity;BMP_temperature;BMP_pressure;BME280_temperature;BME280_humidity;BME280_pressure;Samples;Min_cycle;Max_cycle;Signal;HPM_P1;HPM_P2
2022/09/15 00:01:30;;;;;;;8.63;4.32;;;18.90;99.90;;;19.49;67.16;100623.25;5116870;28;20051;-76
2022/09/15 00:03:59;;;;;;;5.78;4.07;;;19.00;99.90;;;19.48;67.00;100621.50;5116244;28;20067;-76
2022/09/15 00:06:27;;;;;;;6.68;4.43;;;19.00;99.90;;;19.49;67.34;100618.75;5115182;28;20562;-75
2022/09/15 00:08:58;;;;;;;7.97;4.43;;;19.00;99.90;;;19.47;67.59;100619.78;5116431;28;20043;-76
2022/09/15 00:11:28;;;;;;;;;;;19.00;99.90;;;19.31;67.55;100597.22;5117192;28;20044;-76
2022/09/15 00:14:00;;;;;;;9.15;5.70;;;19.00;99.90;;;19.50;67.45;100619.63;5116250;28;20281;-76
2022/09/15 00:16:30;;;;;;;12.45;7.60;;;19.00;99.90;;;19.41;67.15;100591.41;5116336;27;20043;-76
2022/09/15 00:18:59;;;;;;;;;;;19.00;99.90;;;19.53;66.46;100611.44;5116750;28;20040;-76
2022/09/15 00:21:31;;;;;;;10.25;7.88;;;19.00;99.90;;;19.54;66.26;100611.38;5115927;28;19965;-76
2022/09/15 00:24:02;;;;;;;12.23;7.85;;;19.10;99.90;;;19.55;66.12;100610.41;5115002;28;20054;-75
2022/09/15 00:26:31;;;;;;;;;;;19.10;99.90;;;19.53;65.92;100609.63;5115179;28;20054;-75
2022/09/15 00:29:00;;;;;;;13.20;8.68;;;19.10;99.90;;;19.56;65.96;100608.63;5115845;28;19920;-76
2022/09/15 00:31:30;;;;;;;11.80;7.85;;;19.10;99.90;;;19.57;65.92;100613.03;5114700;28;20096;-76
2022/09/15 00:34:02;;;;;;;11.30;8.35;;;19.10;99.90;;;19.57;65.70;100610.34;5116217;28;20035;-76
2022/09/15 00:36:31;;;;;;;11.30;8.32;;;19.10;99.90;;;19.58;66.08;100617.47;5115935;28;20048;-74
2022/09/15 00:39:00;;;;;;;9.63;8.55;;;19.00;99.90;;;19.56;66.17;100612.19;5116098;28;20495;-75
2022/09/15 00:41:28;;;;;;;11.27;9.00;;;19.00;99.90;;;19.54;66.58;100623.91;5116108;28;20035;-76
2022/09/15 00:43:59;;;;;;;12.88;8.80;;;19.10;99.90;;;19.52;67.52;100620.44;5115771;28;20036;-76
2022/09/15 00:46:30;;;;;;;12.85;8.65;;;19.00;99.90;;;19.54;69.23;100616.75;5115485;28;20506;-75
2022/09/15 00:49:07;;;;;;;11.85;8.95;;;19.10;99.90;;;19.53;69.36;100630.25;5115370;27;20047;-75
2022/09/15 00:51:43;;;;;;;11.82;8.57;;;19.10;99.90;;;19.51;68.86;100627.59;5115614;28;20052;-76
2022/09/15 00:54:19;;;;;;;12.77;9.75;;;19.00;99.90;;;19.46;67.98;100628.75;5115532;28;20039;-75
2022/09/15 00:56:51;;;;;;;11.27;9.38;;;19.00;99.90;;;19.41;68.21;100622.72;5115136;28;20488;-76
2022/09/15 00:59:24;;;;;;;12.35;9.15;;;18.90;99.90;;;19.31;68.52;100607.94;5115641;28;20055;-76
2022/09/15 01:01:59;;;;;;;12.02;9.02;;;18.90;99.90;;;19.51;67.71;100627.59;5115255;28;20073;-74
2022/09/15 01:04:27;;;;;;;12.75;9.13;;;19.00;99.90;;;19.53;67.65;100622.19;5115342;28;20424;-76
2022/09/15 01:07:03;;;;;;;14.32;8.85;;;19.00;99.90;;;19.53;67.32;100614.13;5115372;28;20035;-76
2022/09/15 01:09:38;;;;;;;10.43;8.23;;;19.10;99.90;;;19.47;67.30;100628.66;5115690;28;20043;-76
2022/09/15 01:12:07;;;;;;;13.93;9.18;;;19.00;99.90;;;19.47;67.57;100625.13;5115058;28;20046;-76
2022/09/15 01:14:35;;;;;;;11.18;8.65;;;19.00;99.90;;;19.44;68.04;100623.47;5114813;28;20069;-76
2022/09/15 01:17:11;;;;;;;11.25;8.40;;;18.90;99.90;;;19.44;67.90;100623.47;5114977;28;20634;-76
2022/09/15 01:20:30;;;;;;;11.77;7.88;;;19.00;99.90;;;19.48;67.61;100629.56;5114873;28;20145;-76
2022/09/15 01:23:26;;;;;;;12.48;7.43;;;19.00;99.90;;;19.36;68.00;100625.59;5115066;28;20122;-75
2022/09/15 01:26:41;;;;;;;8.43;6.70;;;18.90;99.90;;;19.42;67.80;100624.47;5114837;28;20044;-76
2022/09/15 01:29:48;;;;;;;10.02;6.68;;;18.90;99.90;;;19.38;67.87;100625.53;5114642;28;20036;-76
2022/09/15 01:35:24;;;;;;;8.50;5.82;;;18.90;99.90;;;19.43;67.80;100628.91;5114470;28;20062;-76
2022/09/15 01:38:00;;;;;;;8.65;6.47;;;18.90;99.90;;;19.46;67.63;100624.25;5114487;28;20043;-76
2022/09/15 01:40:35;;;;;;;10.43;5.47;;;19.00;99.90;;;19.51;68.11;100621.38;5114446;28;20058;-75
2022/09/15 01:43:05;;;;;;;7.70;6.20;;;19.10;99.90;;;19.58;67.79;100618.34;5114449;28;20058;-76
2022/09/15 01:45:36;;;;;;;12.48;5.47;;;19.10;99.90;;;19.38;68.81;100628.22;5114200;28;20051;-75
2022/09/15 01:48:08;;;;;;;9.23;4.95;;;19.00;99.90;;;19.45;68.77;100630.56;5114853;28;20048;-76
2022/09/15 01:50:43;;;;;;;7.63;4.38;;;19.00;99.90;;;19.44;69.19;100636.00;5113878;28;20047;-76
2022/09/15 01:53:16;;;;;;;13.35;4.90;;;19.00;99.90;;;19.48;69.68;100634.91;5114125;28;20050;-76
2022/09/15 01:55:52;;;;;;;7.35;4.35;;;19.00;99.90;;;19.58;69.76;100630.88;5113762;28;20039;-74
2022/09/15 01:58:21;;;;;;;5.93;3.92;;;19.10;99.90;;;19.64;69.21;100626.13;5113919;28;20040;-75
2022/09/15 02:00:56;;;;;;;6.75;4.25;;;19.20;99.90;;;19.68;68.94;100635.78;5112712;28;20052;-74
2022/09/15 02:03:32;;;;;;;7.53;3.22;;;19.20;99.90;;;19.79;68.80;100632.59;5113993;28;20120;-76
2022/09/15 02:06:08;;;;;;;6.85;3.75;;;19.40;99.90;;;19.83;68.60;100620.78;5113661;28;20044;-75
2022/09/15 02:08:43;;;;;;;11.20;4.40;;;19.40;99.90;;;19.94;68.34;100625.66;5113592;28;20110;-76
2022/09/15 02:11:17;;;;;;;11.75;4.18;;;19.50;99.90;;;20.01;68.11;100625.31;5113795;28;20075;-75
2022/09/15 02:13:53;;;;;;;8.70;4.28;;;19.60;99.90;;;20.08;68.15;100628.53;5113179;28;20040;-76
2022/09/15 02:16:25;;;;;;;5.18;3.60;;;19.60;99.90;;;20.15;67.75;100630.03;5113778;28;20504;-76
2022/09/15 02:19:09;;;;;;;6.18;3.75;;;19.70;99.90;;;20.15;67.48;100624.66;5113769;28;20039;-76
2022/09/15 02:21:56;;;;;;;8.00;3.72;;;19.70;99.90;;;20.24;67.63;100630.50;5113764;28;20209;-76
2022/09/15 02:24:32;;;;;;;9.25;3.83;;;19.80;99.90;;;20.21;67.30;100629.78;5113698;28;20435;-75
2022/09/15 02:27:02;;;;;;;11.15;3.47;;;19.80;99.90;;;20.20;67.47;100628.00;5114296;28;20040;-76
2022/09/15 02:29:35;;;;;;;11.02;4.03;;;19.80;99.90;;;20.03;67.28;100607.31;5114322;28;20047;-75
2022/09/15 02:32:06;;;;;;;6.82;3.60;;;19.70;99.90;;;20.11;67.47;100628.41;5113748;28;20042;-76
2022/09/15 02:34:41;;;;;;;8.45;3.63;;;19.70;99.90;;;20.16;67.14;100629.94;5113926;28;20051;-75
2022/09/15 02:37:11;;;;;;;5.95;3.67;;;19.70;99.90;;;20.28;66.82;100626.72;5113546;28;20392;-76
2022/09/15 02:39:45;;;;;;;9.27;3.42;;;19.80;99.90;;;20.26;66.76;100625.91;5113374;28;20104;-76
2022/09/15 02:42:23;;;;;;;6.43;3.63;;;19.90;99.90;;;20.27;66.51;100632.13;5113934;28;20078;-75
2022/09/15 02:44:51;;;;;;;8.02;3.80;;;19.90;99.90;;;20.23;66.21;100634.09;5113713;28;20051;-76
2022/09/15 02:47:21;;;;;;;9.02;3.63;;;19.80;99.90;;;20.22;66.45;100643.13;5113323;28;20453;-76
2022/09/15 02:49:50;;;;;;;8.35;3.47;;;19.80;99.90;;;20.24;66.02;100640.34;5113140;28;20056;-75
2022/09/15 02:52:18;;;;;;;4.90;3.10;;;19.80;99.90;;;20.16;65.51;100635.31;5113243;28;20117;-76
2022/09/15 02:54:46;;;;;;;8.60;3.53;;;19.80;99.90;;;20.22;65.54;100642.25;5113447;28;20048;-76
2022/09/15 02:57:15;;;;;;;6.97;3.58;;;19.70;99.90;;;20.26;65.61;100638.47;5113171;28;20481;-75
2022/09/15 03:02:36;;;;;;;6.68;3.15;;;19.80;99.90;;;20.30;65.87;100638.25;5098300;28;20059;-76
2022/09/15 03:05:05;;;;;;;7.53;3.72;;;19.80;99.90;;;20.29;65.51;100631.13;5113347;28;20039;-74
2022/09/15 03:07:33;;;;;;;6.53;2.83;;;19.80;99.90;;;20.31;64.90;100633.72;5113147;28;20051;-76
2022/09/15 03:10:02;;;;;;;6.13;3.63;;;19.80;99.90;;;20.29;64.91;100635.63;5113640;28;20066;-76
2022/09/15 03:12:30;;;;;;;8.05;3.55;;;19.80;99.90;;;20.25;64.62;100644.75;5113738;28;20493;-75
2022/09/15 03:14:58;;;;;;;7.65;3.22;;;19.80;99.90;;;20.23;64.37;100644.84;5112984;28;20040;-76
2022/09/15 03:17:26;;;;;;;6.65;3.90;;;19.70;99.90;;;20.22;64.67;100650.28;5112983;28;20036;-76
2022/09/15 03:19:56;;;;;;;6.38;3.70;;;19.70;99.90;;;20.16;64.47;100640.69;5113119;28;20050;-76
2022/09/15 03:22:24;;;;;;;7.57;3.10;;;19.70;99.90;;;20.21;64.79;100649.41;5113316;28;20040;-77
2022/09/15 03:24:52;;;;;;;5.85;3.50;;;19.70;99.90;;;20.23;65.04;100647.53;5115239;28;20055;-75
2022/09/15 03:27:21;;;;;;;6.70;3.38;;;19.70;99.90;;;20.29;64.44;100657.09;5116982;28;20062;-74
2022/09/15 03:29:49;;;;;;;7.85;3.33;;;19.80;99.90;;;20.30;64.71;100657.06;5117089;28;20036;-76
2022/09/15 03:32:17;;;;;;;8.93;3.72;;;19.80;99.90;;;20.23;64.55;100652.91;5117318;28;20058;-76
2022/09/15 03:34:46;;;;;;;6.32;3.67;;;19.80;99.90;;;20.17;64.52;100665.75;5117720;28;20067;-76
2022/09/15 03:37:16;;;;;;;7.70;3.83;;;19.70;99.90;;;20.12;64.45;100654.31;5116949;28;20050;-76
2022/09/15 03:39:44;;;;;;;4.97;3.58;;;19.70;99.90;;;20.16;64.29;100666.66;5116782;28;20043;-76
2022/09/15 03:42:13;;;;;;;5.80;3.28;;;19.60;99.90;;;20.10;64.28;100654.41;5117221;28;20035;-75
2022/09/15 03:44:41;;;;;;;5.15;3.50;;;19.60;99.90;;;20.14;64.21;100660.50;5117101;28;20047;-75
2022/09/15 03:47:09;;;;;;;4.88;3.20;;;19.70;99.90;;;20.17;64.05;100661.22;5116701;28;20055;-76
2022/09/15 03:49:37;;;;;;;6.30;3.22;;;19.70;99.90;;;20.26;63.57;100665.34;5115213;28;20237;-74
2022/09/15 03:52:05;;;;;;;6.90;3.25;;;19.80;99.90;;;20.14;64.03;100679.28;5116744;28;20477;-76
2022/09/15 03:54:35;;;;;;;7.03;3.22;;;19.80;99.90;;;20.29;64.19;100666.06;5116639;28;20047;-76
2022/09/15 03:57:04;;;;;;;7.65;3.85;;;19.90;99.90;;;20.27;64.22;100662.56;5115045;28;20516;-75
2022/09/15 03:59:32;;;;;;;7.60;3.30;;;19.90;99.90;;;20.27;65.06;100667.94;5116285;28;20043;-76
2022/09/15 04:02:00;;;;;;;4.72;3.72;;;19.90;99.90;;;20.26;65.27;100662.66;5116291;28;20040;-76
2022/09/15 04:04:29;;;;;;;6.85;3.22;;;19.80;99.90;;;20.21;64.91;100654.78;5116320;28;20052;-76
2022/09/15 04:06:57;;;;;;;9.65;3.72;;;19.80;99.90;;;20.18;65.03;100657.63;5116284;28;20040;-75
2022/09/15 04:09:25;;;;;;;8.13;4.05;;;19.80;99.90;;;20.19;65.67;100666.56;5116460;28;20100;-76
2022/09/15 04:11:55;;;;;;;5.32;3.60;;;19.80;99.90;;;20.13;65.75;100664.97;5115173;28;20039;-76
2022/09/15 04:14:23;;;;;;;8.30;3.47;;;19.70;99.90;;;20.08;65.77;100658.09;5116231;28;20135;-76
2022/09/15 04:16:51;;;;;;;6.07;3.28;;;19.70;99.90;;;20.11;65.29;100664.19;5114968;28;20036;-75
2022/09/15 04:19:20;;;;;;;6.70;3.25;;;19.70;99.90;;;20.08;65.14;100668.84;5115972;28;20046;-74
2022/09/15 04:21:48;;;;;;;6.53;3.90;;;19.60;99.90;;;20.11;64.87;100658.81;5115988;28;20480;-76
2022/09/15 04:24:16;;;;;;;4.88;3.72;;;19.60;99.90;;;20.10;65.05;100665.16;5115897;28;20046;-75
2022/09/15 04:26:44;;;;;;;6.97;3.70;;;19.60;99.90;;;20.11;65.10;100656.13;5116337;28;20043;-76
2022/09/15 04:29:16;;;;;;;6.90;3.38;;;19.60;99.90;;;20.13;64.76;100664.13;5116104;28;20043;-76
2022/09/15 04:31:45;;;;;;;5.85;3.40;;;19.70;99.90;;;20.08;65.17;100669.72;5116148;28;20062;-76
2022/09/15 04:34:14;;;;;;;6.20;3.55;;;19.60;99.90;;;20.12;64.90;100674.00;5115430;28;20043;-76
2022/09/15 04:36:42;;;;;;;6.28;3.45;;;19.60;99.90;;;20.11;64.71;100666.03;5114912;28;20126;-75
2022/09/15 04:39:10;;;;;;;5.45;3.50;;;19.60;99.90;;;20.04;64.54;100661.84;5115354;28;20035;-76
2022/09/15 04:41:39;;;;;;;5.93;3.75;;;19.60;99.90;;;20.12;64.90;100663.25;5115331;28;20427;-75
2022/09/15 04:44:07;;;;;;;6.07;3.60;;;19.60;99.90;;;20.14;64.29;100665.88;5115592;28;20036;-76
2022/09/15 04:46:37;;;;;;;7.03;3.25;;;19.70;99.90;;;20.19;64.09;100661.19;5115617;28;20051;-76
2022/09/15 04:49:05;;;;;;;5.13;3.40;;;19.70;99.90;;;20.22;64.21;100661.94;5115491;28;20092;-75
2022/09/15 04:51:33;;;;;;;6.82;3.60;;;19.80;99.90;;;20.20;63.73;100671.00;5115780;28;20059;-75
2022/09/15 04:54:02;;;;;;;5.55;3.35;;;19.80;99.90;;;20.21;63.79;100660.16;5115684;28;20050;-76
2022/09/15 04:56:30;;;;;;;5.57;3.40;;;19.80;99.90;;;20.15;63.85;100665.78;5115507;28;20048;-76
2022/09/15 04:59:00;;;;;;;4.95;3.25;;;19.70;99.90;;;20.15;64.18;100662.25;5115240;28;20049;-75
2022/09/15 05:01:34;;;;;;;7.75;3.70;;;19.70;99.90;;;20.14;64.66;100653.31;5115262;28;20040;-76
2022/09/15 05:04:05;;;;;;;5.35;2.90;;;19.70;99.90;;;20.11;64.37;100650.75;5115200;28;20040;-75
2022/09/15 05:06:35;;;;;;;7.18;3.38;;;19.70;99.90;;;20.13;64.28;100648.03;5115093;28;20129;-75
2022/09/15 05:09:06;;;;;;;5.70;3.38;;;19.70;99.90;;;20.16;64.07;100648.75;5113818;28;20071;-75
2022/09/15 05:11:38;;;;;;;5.90;3.78;;;19.70;99.90;;;20.07;63.81;100659.94;5115484;28;20097;-75
2022/09/15 05:14:08;;;;;;;8.98;3.40;;;19.70;99.90;;;20.08;63.70;100661.66;5114968;28;20052;-76
2022/09/15 05:16:37;;;;;;;8.80;3.92;;;19.60;99.90;;;20.02;63.91;100659.25;5115172;28;20052;-76
2022/09/15 05:19:06;;;;;;;7.75;3.28;;;19.60;99.90;;;19.96;64.19;100659.53;5115057;28;20051;-75
2022/09/15 05:21:35;;;;;;;6.68;3.28;;;19.50;99.90;;;19.96;64.22;100662.22;5114809;28;20044;-75
2022/09/15 05:24:03;;;;;;;5.70;3.03;;;19.50;99.90;;;19.70;64.27;100643.75;5115049;28;20039;-77
2022/09/15 05:26:31;;;;;;;5.10;3.25;;;19.40;99.90;;;19.82;64.36;100661.13;5114888;28;20040;-76
2022/09/15 05:28:59;;;;;;;6.03;3.38;;;19.40;99.90;;;19.79;64.36;100672.84;5114508;28;20055;-74
2022/09/15 05:31:32;;;;;;;5.38;3.47;;;19.30;99.90;;;19.73;64.83;100665.09;5114781;28;20131;-76
2022/09/15 05:34:04;;;;;;;5.40;3.15;;;19.30;99.90;;;19.69;65.02;100672.41;5114561;28;20450;-75
2022/09/15 05:36:34;;;;;;;6.70;3.50;;;19.30;99.90;;;19.73;65.58;100665.97;5114880;28;20048;-75
2022/09/15 05:39:02;;;;;;;5.97;3.35;;;19.30;99.90;;;19.78;64.73;100668.44;5114664;28;20046;-76
2022/09/15 05:41:31;;;;;;;4.95;3.70;;;19.30;99.90;;;19.83;64.16;100668.22;5114280;28;20043;-75
2022/09/15 05:43:59;;;;;;;7.53;3.80;;;19.40;99.90;;;19.84;63.45;100665.47;5114306;28;20416;-76
2022/09/15 05:46:28;;;;;;;6.18;3.60;;;19.40;99.90;;;19.79;63.56;100671.06;5114221;28;20377;-76
2022/09/15 05:48:58;;;;;;;9.73;3.33;;;19.30;99.90;;;19.87;63.75;100670.69;5113550;28;20078;-75
2022/09/15 05:51:28;;;;;;;6.88;3.42;;;19.40;99.90;;;19.90;63.64;100658.97;5114076;28;20051;-75
2022/09/15 05:53:58;;;;;;;7.35;3.30;;;19.40;99.90;;;19.92;63.13;100665.97;5114233;28;20047;-75
2022/09/15 05:56:27;;;;;;;8.88;3.40;;;19.50;99.90;;;19.94;63.20;100666.78;5114169;28;20044;-76
2022/09/15 05:58:55;;;;;;;8.57;3.80;;;19.50;99.90;;;19.97;63.25;100668.47;5113997;28;20428;-75
2022/09/15 06:01:26;;;;;;;9.32;3.17;;;19.50;99.90;;;20.04;62.65;100668.09;5114038;28;20131;-75
2022/09/15 06:03:55;;;;;;;;;;;19.60;99.90;;;20.08;62.76;100669.72;5114485;28;20048;-76
2022/09/15 06:06:25;;;;;;;7.45;3.65;;;19.70;99.90;;;20.08;62.97;100680.47;5113885;28;19927;-76
2022/09/15 06:08:56;;;;;;;6.97;3.80;;;19.70;99.90;;;20.07;63.31;100681.41;5114237;28;20051;-75
2022/09/15 06:11:30;;;;;;;8.60;4.13;;;19.60;99.90;;;20.09;64.13;100674.13;5114437;28;20040;-75
2022/09/15 06:14:01;;;;;;;8.77;3.90;;;19.60;99.90;;;20.05;63.95;100677.94;5114124;28;20048;-75
2022/09/15 06:16:33;;;;;;;6.65;3.70;;;19.60;99.90;;;20.02;63.96;100683.41;5114157;28;20062;-76
2022/09/15 06:19:02;;;;;;;7.78;4.00;;;19.60;99.90;;;19.95;63.98;100681.97;5113816;28;20036;-76
2022/09/15 06:21:32;;;;;;;9.85;3.95;;;19.50;99.90;;;20.03;63.77;100690.56;5113784;28;20411;-77
2022/09/15 06:24:03;;;;;;;8.77;4.25;;;19.50;99.90;;;20.03;63.43;100695.94;5112934;28;20063;-76
2022/09/15 06:26:33;;;;;;;9.57;3.60;;;19.60;99.90;;;19.84;64.13;100683.41;5113639;28;20499;-75
2022/09/15 06:29:05;;;;;;;17.00;4.35;;;19.50;99.90;;;19.89;64.89;100705.53;5113702;28;20124;-76
2022/09/15 06:31:34;;;;;;;11.60;4.00;;;19.40;99.90;;;20.11;63.23;100704.47;5114013;28;20104;-75
2022/09/15 06:34:04;;;;;;;10.20;3.83;;;19.70;99.90;;;20.22;62.33;100710.28;5113931;28;20455;-76
2022/09/15 06:36:32;;;;;;;10.20;3.70;;;19.80;99.90;;;20.19;62.05;100704.19;5113637;28;20040;-76
2022/09/15 06:39:01;;;;;;;8.73;3.30;;;19.80;99.90;;;20.02;62.66;100702.22;5113800;28;20096;-75
2022/09/15 06:41:30;;;;;;;7.55;3.90;;;19.60;99.90;;;20.03;63.25;100690.56;5113389;28;20048;-76
2022/09/15 06:44:20;;;;;;;6.53;3.90;;;19.70;99.90;;;19.98;63.31;100697.94;5113611;28;20071;-76
2022/09/15 06:46:48;;;;;;;7.93;3.67;;;19.60;99.90;;;20.19;63.12;100709.56;5113712;28;20396;-76
2022/09/15 06:49:17;;;;;;;10.57;3.58;;;19.70;99.90;;;20.22;62.64;100710.28;5112900;28;20052;-75
2022/09/15 06:51:46;;;;;;;8.15;3.70;;;19.80;99.90;;;20.20;62.92;100714.84;5113154;28;20044;-75
2022/09/15 06:54:15;;;;;;;10.20;4.15;;;19.80;99.90;;;19.96;62.91;100715.91;5113040;28;20089;-75
2022/09/15 06:56:44;;;;;;;7.22;3.40;;;19.60;99.90;;;20.15;62.48;100714.13;5112985;28;20043;-75
2022/09/15 06:59:15;;;;;;;10.18;3.95;;;19.70;99.90;;;20.26;62.19;100719.06;5115310;28;20043;-76
2022/09/15 07:01:45;;;;;;;;;;;19.80;99.90;;;20.24;62.24;100727.19;5120230;27;20044;-75
2022/09/15 07:04:13;;;;;;;9.00;4.00;;;19.90;99.90;;;20.26;61.68;100725.31;5120016;28;20019;-75
2022/09/15 07:06:41;;;;;;;8.20;3.47;;;19.90;99.90;;;20.37;61.55;100738.22;5120214;28;20043;-75
2022/09/15 07:09:11;;;;;;;9.65;3.75;;;19.90;99.90;;;20.41;61.47;100734.47;5119946;28;20391;-76
2022/09/15 07:11:40;;;;;;;8.98;3.80;;;20.00;99.90;;;20.46;61.29;100732.44;5120151;28;20058;-77
2022/09/15 07:14:08;;;;;;;12.88;4.32;;;20.10;99.90;;;20.53;61.11;100725.81;5118658;28;20047;-75
2022/09/15 07:16:36;;;;;;;8.68;3.65;;;20.20;99.90;;;20.56;61.21;100739.97;5120133;28;20083;-77
2022/09/15 07:19:06;;;;;;;8.98;3.25;;;20.20;99.90;;;20.52;61.53;100743.75;5119710;28;20040;-76
2022/09/15 07:21:35;;;;;;;9.70;3.35;;;20.30;99.90;;;20.50;61.40;100756.41;5119807;28;20042;-76
2022/09/15 07:24:04;;;;;;;14.45;4.22;;;20.30;99.90;;;20.44;61.29;100755.84;5119558;27;20044;-76
2022/09/15 07:26:35;;;;;;;9.73;3.65;;;20.20;99.90;;;20.50;61.64;100756.41;5119612;27;20054;-76
2022/09/15 07:29:06;;;;;;;7.65;3.95;;;20.20;99.90;;;20.43;62.14;100760.31;5119751;28;20481;-75
2022/09/15 07:31:37;;;;;;;10.38;4.35;;;20.10;99.90;;;20.39;62.41;100757.84;5119822;28;20055;-74
2022/09/15 07:34:08;;;;;;;10.70;3.30;;;20.10;99.90;;;20.37;62.89;100755.22;5119957;28;20075;-75
2022/09/15 07:36:36;;;;;;;9.77;4.03;;;20.00;99.90;;;20.38;63.00;100758.81;5119849;27;20043;-75
2022/09/15 07:39:05;;;;;;;9.80;3.78;;;20.00;99.90;;;20.45;63.31;100768.31;5119972;28;20444;-75
2022/09/15 07:41:34;;;;;;;9.55;3.90;;;20.10;99.90;;;20.38;63.21;100748.06;5120010;27;20043;-73
2022/09/15 07:44:02;;;;;;;8.30;3.55;;;20.10;99.90;;;20.52;62.80;100762.56;5119765;28;20054;-75
2022/09/15 07:46:32;;;;;;;9.07;3.55;;;20.10;99.90;;;20.55;62.82;100770.50;5119798;27;20496;-74
2022/09/15 07:49:01;;;;;;;7.63;3.57;;;20.20;99.90;;;20.60;63.07;100768.47;5120057;28;20051;-75
2022/09/15 07:51:32;;;;;;;10.52;4.15;;;20.20;99.90;;;20.71;62.29;100770.66;5119604;28;20323;-75
2022/09/15 07:54:00;;;;;;;9.63;4.43;;;20.30;99.90;;;20.78;62.19;100785.53;5119475;28;20043;-75
2022/09/15 07:56:29;;;;;;;6.18;3.10;;;20.40;99.90;;;20.61;61.41;100786.31;5119261;28;20292;-75
2022/09/15 07:58:57;;;;;;;6.97;2.90;;;20.30;99.90;;;20.39;61.78;100777.53;5119489;28;20035;-74
2022/09/15 08:01:26;;;;;;;6.90;3.15;;;20.10;99.90;;;20.29;60.61;100786.06;5119605;27;20122;-75
2022/09/15 08:03:54;;;;;;;5.82;3.15;;;20.10;99.90;;;20.23;61.30;100794.41;5119673;28;20123;-75
2022/09/15 08:06:25;;;;;;;6.07;3.45;;;19.90;99.90;;;20.33;61.22;100793.94;5119732;28;20040;-76
2022/09/15 08:08:55;;;;;;;12.40;3.92;;;20.00;99.90;;;19.92;61.77;100716.16;5118435;28;20135;-75
2022/09/15 08:11:29;;;;;;;9.35;3.55;;;20.00;99.90;;;20.29;61.80;100805.75;5115120;28;20071;-74
2022/09/15 08:14:01;;;;;;;7.88;3.30;;;20.00;99.90;;;20.09;61.75;100783.41;5116562;28;20039;-74
2022/09/15 08:16:29;;;;;;;7.60;3.45;;;19.90;99.90;;;20.19;61.84;100820.53;5116383;28;20054;-76
2022/09/15 08:18:57;;;;;;;8.90;3.70;;;19.80;99.90;;;20.11;61.88;100811.06;5115825;28;20046;-75
2022/09/15 08:21:26;;;;;;;9.52;3.65;;;19.80;99.90;;;20.13;61.83;100817.22;5115872;28;20050;-75
2022/09/15 08:23:58;;;;;;;8.85;3.65;;;19.80;99.90;;;20.02;62.18;100820.38;5116076;28;20054;-75
2022/09/15 08:26:29;;;;;;;12.68;3.97;;;19.80;99.90;;;20.01;63.12;100804.34;5115844;28;20408;-76
2022/09/15 08:28:59;;;;;;;11.85;4.45;;;19.80;99.90;;;20.07;62.44;100837.19;5116213;28;20047;-75
2022/09/15 08:31:27;;;;;;;7.85;3.53;;;19.80;99.90;;;19.96;62.55;100841.25;5115926;28;20489;-75
2022/09/15 08:33:56;;;;;;;8.60;3.60;;;19.70;99.90;;;19.60;62.85;100836.53;5115687;28;20164;-76
2022/09/15 08:36:26;;;;;;;8.40;3.95;;;19.40;99.90;;;19.56;63.05;100847.44;5115782;28;20054;-75
2022/09/15 08:38:56;;;;;;;11.23;4.10;;;19.30;99.90;;;19.69;62.68;100841.50;5115558;28;20401;-74
2022/09/15 08:41:28;;;;;;;8.55;3.58;;;19.40;99.90;;;19.78;62.39;100848.31;5115531;28;20054;-74
2022/09/15 08:44:03;;;;;;;9.88;3.58;;;19.50;99.90;;;19.82;61.86;100860.66;5115483;28;20511;-75
2022/09/15 08:46:37;;;;;;;10.05;3.55;;;19.50;99.90;;;19.79;61.43;100850.03;5115827;28;20044;-75
2022/09/15 08:49:14;;;;;;;10.65;3.53;;;19.60;99.90;;;19.94;60.15;100851.22;5115671;28;20051;-75
2022/09/15 08:52:09;;;;;;;10.05;4.30;;;19.70;99.90;;;20.04;60.06;100848.03;5114414;28;20413;-75
2022/09/15 08:54:39;;;;;;;8.95;3.63;;;19.80;99.90;;;20.10;60.39;100855.84;5115368;28;20405;-75
2022/09/15 08:57:16;;;;;;;9.15;3.67;;;19.80;99.90;;;20.14;60.05;100827.91;5115335;28;20058;-75
2022/09/15 08:59:46;;;;;;;13.25;3.35;;;20.00;99.90;;;20.42;59.69;100860.69;5115510;28;20043;-75
2022/09/15 09:02:42;;;;;;;8.00;3.55;;;20.00;99.90;;;20.69;58.95;100863.94;5115495;28;20036;-75
2022/09/15 09:05:28;;;;;;;9.95;3.85;;;20.30;99.90;;;20.90;58.34;100859.38;5115368;28;20054;-74
2022/09/15 09:08:33;;;;;;;8.05;3.30;;;20.50;99.90;;;21.12;57.27;100861.00;5115029;28;20046;-75
2022/09/15 09:11:18;;;;;;;7.63;3.20;;;20.80;99.90;;;20.59;57.05;100765.84;5114969;28;20047;-75
2022/09/15 09:13:53;;;;;;;11.15;3.33;;;20.80;99.90;;;21.38;57.17;100862.44;5115205;28;20123;-74
2022/09/15 09:16:41;;;;;;;8.10;3.20;;;21.00;99.90;;;21.05;56.45;100869.44;5115051;28;20645;-74
2022/09/15 09:19:46;;;;;;;5.90;2.72;;;20.80;99.90;;;20.83;55.70;100866.00;5115292;28;20142;-75
2022/09/15 09:22:18;;;;;;;6.35;2.90;;;20.50;99.90;;;21.14;55.65;100867.19;5114760;28;20040;-75
2022/09/15 09:24:51;;;;;;;6.47;3.10;;;20.70;99.90;;;20.90;55.96;100865.66;5114775;28;20039;-74
2022/09/15 09:27:27;;;;;;;6.85;2.95;;;20.60;99.90;;;20.87;55.67;100856.81;5115291;28;20053;-75
2022/09/15 09:30:03;;;;;;;7.32;3.33;;;20.60;99.90;;;21.00;54.34;100863.41;5115004;28;20519;-76
2022/09/15 09:32:40;;;;;;;6.88;3.17;;;20.60;99.90;;;21.19;54.78;100854.41;5115203;28;20039;-75
2022/09/15 09:35:22;;;;;;;5.85;2.83;;;20.80;99.90;;;21.03;53.79;100853.38;5114471;28;20047;-75
2022/09/15 09:37:53;;;;;;;5.90;3.08;;;20.70;99.90;;;20.98;53.49;100855.38;5114684;28;20051;-75
2022/09/15 09:40:22;;;;;;;7.50;3.35;;;20.60;99.90;;;20.97;52.57;100852.75;5114524;28;20047;-75
2022/09/15 09:42:52;;;;;;;9.32;3.05;;;20.70;99.90;;;21.13;52.12;100853.81;5114275;28;20485;-75
2022/09/15 09:45:21;;;;;;;5.53;3.10;;;20.80;99.90;;;21.20;52.79;100850.75;5114393;28;20122;-75
2022/09/15 09:47:50;;;;;;;8.52;3.33;;;21.00;99.90;;;21.30;51.49;100856.56;5114051;28;20031;-75
2022/09/15 09:50:35;;;;;;;8.18;3.65;;;21.00;99.90;;;21.14;50.22;100834.03;5112698;28;20058;-75
2022/09/15 09:53:23;;;;;;;9.18;3.38;;;21.00;99.90;;;21.02;49.94;100819.34;5114051;28;20046;-74
2022/09/15 09:55:53;;;;;;;8.32;3.38;;;21.00;99.90;;;20.79;50.88;100850.97;5112834;28;20189;-75
2022/09/15 09:58:25;;;;;;;7.80;3.45;;;20.60;99.90;;;20.50;51.94;100855.84;5114114;28;20147;-75
2022/09/15 10:00:53;;;;;;;6.63;3.63;;;20.30;99.90;;;20.68;52.72;100851.44;5114094;28;20445;-75
2022/09/15 10:03:24;;;;;;;6.78;3.40;;;20.40;99.90;;;20.66;52.42;100850.63;5113744;28;20549;-76
2022/09/15 10:06:07;;;;;;;4.78;3.00;;;20.30;99.90;;;20.93;51.20;100860.09;5114215;28;20043;-76
2022/09/15 10:08:36;;;;;;;7.38;3.30;;;20.50;99.90;;;20.94;51.50;100861.88;5112942;28;20048;-75
2022/09/15 10:11:09;;;;;;;7.88;3.10;;;20.60;99.90;;;21.16;50.94;100859.03;5112961;28;20504;-75
2022/09/15 10:13:53;;;;;;;8.02;3.33;;;20.80;99.90;;;21.08;51.73;100858.56;5113023;28;20511;-76
2022/09/15 10:16:22;;;;;;;7.32;3.03;;;20.80;99.90;;;21.17;51.05;100858.09;5114308;28;20050;-75
2022/09/15 10:18:51;;;;;;;8.45;3.53;;;20.90;99.90;;;21.42;51.07;100851.47;5113674;28;20113;-76
2022/09/15 10:21:24;;;;;;;6.07;3.17;;;21.10;99.90;;;21.28;50.51;100858.47;5113676;28;20130;-74
2022/09/15 10:23:52;;;;;;;8.60;3.47;;;21.10;99.90;;;21.46;49.90;100869.22;5113707;28;20043;-75
2022/09/15 10:26:32;;;;;;;8.48;3.35;;;21.20;99.90;;;20.82;49.40;100853.50;5113561;28;20067;-74
2022/09/15 10:29:25;;;;;;;7.78;3.42;;;20.60;99.90;;;21.08;50.05;100859.41;5113605;28;20110;-75
2022/09/15 10:31:53;;;;;;;8.57;3.17;;;20.70;99.90;;;21.23;49.71;100852.44;5088892;28;20142;-76
2022/09/15 10:34:30;;;;;;;7.28;3.50;;;20.90;99.90;;;21.04;50.12;100856.97;5113754;28;20469;-75
2022/09/15 10:37:18;;;;;;;5.57;3.03;;;20.70;99.90;;;21.21;49.11;100860.59;5113605;28;20481;-75
2022/09/15 10:39:53;;;;;;;5.85;3.03;;;20.80;99.90;;;21.28;47.68;100855.75;5113323;28;20054;-75